sensor_id;sensor_type;location;lat;lon;timestamp;temperature;humidity
63317;DHT22;49822;41.468;13.560;2022-09-16T00:00:52;21.70;87.60
63317;DHT22;49822;41.468;13.560;2022-09-16T00:03:20;21.70;87.60
63317;DHT22;49822;41.468;13.560;2022-09-16T00:05:50;21.70;87.60
63317;DHT22;49822;41.468;13.560;2022-09-16T00:08:19;21.70;87.70
63317;DHT22;49822;41.468;13.560;2022-09-16T00:10:46;21.70;87.40
63317;DHT22;49822;41.468;13.560;2022-09-16T00:13:15;21.70;87.30
63317;DHT22;49822;41.468;13.560;2022-09-16T00:15:48;21.50;88.90
63317;DHT22;49822;41.468;13.560;2022-09-16T00:18:19;21.50;89.30
63317;DHT22;49822;41.468;13.560;2022-09-16T00:20:48;21.50;89.00
63317;DHT22;49822;41.468;13.560;2022-09-16T00:23:17;21.70;88.70
63317;DHT22;49822;41.468;13.560;2022-09-16T00:25:52;21.70;88.70
63317;DHT22;49822;41.468;13.560;2022-09-16T00:28:21;21.50;89.60
63317;DHT22;49822;41.468;13.560;2022-09-16T00:30:50;21.40;90.70
63317;DHT22;49822;41.468;13.560;2022-09-16T00:33:19;21.50;91.40
63317;DHT22;49822;41.468;13.560;2022-09-16T00:35:47;21.30;92.30
63317;DHT22;49822;41.468;13.560;2022-09-16T00:38:14;21.40;92.00
63317;DHT22;49822;41.468;13.560;2022-09-16T00:40:47;21.50;91.80
63317;DHT22;49822;41.468;13.560;2022-09-16T00:43:18;21.50;90.90
63317;DHT22;49822;41.468;13.560;2022-09-16T00:45:51;21.70;90.40
63317;DHT22;49822;41.468;13.560;2022-09-16T00:48:23;21.70;89.40
63317;DHT22;49822;41.468;13.560;2022-09-16T00:50:57;21.50;90.20
63317;DHT22;49822;41.468;13.560;2022-09-16T00:53:30;21.40;91.60
63317;DHT22;49822;41.468;13.560;2022-09-16T00:56:02;21.40;92.60
63317;DHT22;49822;41.468;13.560;2022-09-16T00:58:47;21.50;91.40
63317;DHT22;49822;41.468;13.560;2022-09-16T01:01:20;21.50;91.50
63317;DHT22;49822;41.468;13.560;2022-09-16T01:03:51;21.50;91.20
63317;DHT22;49822;41.468;13.560;2022-09-16T01:06:20;21.40;91.50
63317;DHT22;49822;41.468;13.560;2022-09-16T01:08:49;21.50;91.80
63317;DHT22;49822;41.468;13.560;2022-09-16T01:11:16;21.40;92.80
63317;DHT22;49822;41.468;13.560;2022-09-16T01:13:45;21.50;93.50
63317;DHT22;49822;41.468;13.560;2022-09-16T01:16:35;21.70;92.90
63317;DHT22;49822;41.468;13.560;2022-09-16T01:33:17;21.90;90.80
63317;DHT22;49822;41.468;13.560;2022-09-16T01:36:08;21.90;90.40
63317;DHT22;49822;41.468;13.560;2022-09-16T01:39:03;21.90;91.10
63317;DHT22;49822;41.468;13.560;2022-09-16T01:44:45;21.90;91.00
63317;DHT22;49822;41.468;13.560;2022-09-16T01:50:31;21.90;91.70
63317;DHT22;49822;41.468;13.560;2022-09-16T01:59:18;21.70;92.00
63317;DHT22;49822;41.468;13.560;2022-09-16T02:01:55;21.80;92.20
63317;DHT22;49822;41.468;13.560;2022-09-16T02:04:32;21.90;91.30
63317;DHT22;49822;41.468;13.560;2022-09-16T02:07:04;21.90;90.60
63317;DHT22;49822;41.468;13.560;2022-09-16T02:09:39;21.90;91.30
63317;DHT22;49822;41.468;13.560;2022-09-16T02:12:12;21.90;90.90
63317;DHT22;49822;41.468;13.560;2022-09-16T02:14:43;21.90;91.00
63317;DHT22;49822;41.468;13.560;2022-09-16T02:17:15;21.90;90.40
63317;DHT22;49822;41.468;13.560;2022-09-16T02:19:48;21.80;91.00
63317;DHT22;49822;41.468;13.560;2022-09-16T02:22:27;21.70;91.00
63317;DHT22;49822;41.468;13.560;2022-09-16T02:24:57;21.80;91.20
63317;DHT22;49822;41.468;13.560;2022-09-16T02:27:26;21.80;91.00
63317;DHT22;49822;41.468;13.560;2022-09-16T02:30:02;21.70;91.50
63317;DHT22;49822;41.468;13.560;2022-09-16T02:32:34;21.80;91.50
63317;DHT22;49822;41.468;13.560;2022-09-16T02:35:04;21.90;91.10
63317;DHT22;49822;41.468;13.560;2022-09-16T02:37:38;21.90;90.80
63317;DHT22;49822;41.468;13.560;2022-09-16T02:40:36;21.90;90.40
63317;DHT22;49822;41.468;13.560;2022-09-16T02:43:04;21.70;91.20
63317;DHT22;49822;41.468;13.560;2022-09-16T02:56:47;21.80;90.50
63317;DHT22;49822;41.468;13.560;2022-09-16T02:59:16;21.90;90.40
63317;DHT22;49822;41.468;13.560;2022-09-16T03:01:45;21.80;90.50
63317;DHT22;49822;41.468;13.560;2022-09-16T03:04:16;21.70;90.70
63317;DHT22;49822;41.468;13.560;2022-09-16T03:06:45;21.70;91.00
63317;DHT22;49822;41.468;13.560;2022-09-16T03:09:14;21.50;91.50
63317;DHT22;49822;41.468;13.560;2022-09-16T03:28:13;21.60;91.40
63317;DHT22;49822;41.468;13.560;2022-09-16T03:33:42;21.50;92.80
63317;DHT22;49822;41.468;13.560;2022-09-16T03:36:16;21.30;93.70
63317;DHT22;49822;41.468;13.560;2022-09-16T03:38:45;21.30;94.00
63317;DHT22;49822;41.468;13.560;2022-09-16T03:41:15;21.40;94.30
63317;DHT22;49822;41.468;13.560;2022-09-16T03:43:54;21.40;93.70
63317;DHT22;49822;41.468;13.560;2022-09-16T03:46:28;21.50;93.40
63317;DHT22;49822;41.468;13.560;2022-09-16T03:48:56;21.50;92.80
63317;DHT22;49822;41.468;13.560;2022-09-16T03:51:25;21.50;92.30
63317;DHT22;49822;41.468;13.560;2022-09-16T03:53:53;21.50;92.10
63317;DHT22;49822;41.468;13.560;2022-09-16T03:56:22;21.40;92.70
63317;DHT22;49822;41.468;13.560;2022-09-16T03:58:50;21.40;92.40
63317;DHT22;49822;41.468;13.560;2022-09-16T04:01:19;21.50;92.00
63317;DHT22;49822;41.468;13.560;2022-09-16T04:03:47;21.40;91.90
63317;DHT22;49822;41.468;13.560;2022-09-16T04:06:15;21.40;92.60
63317;DHT22;49822;41.468;13.560;2022-09-16T04:08:43;21.40;92.90
63317;DHT22;49822;41.468;13.560;2022-09-16T04:11:11;21.50;92.50
63317;DHT22;49822;41.468;13.560;2022-09-16T04:13:38;21.60;91.20
63317;DHT22;49822;41.468;13.560;2022-09-16T04:16:06;21.60;91.20
63317;DHT22;49822;41.468;13.560;2022-09-16T04:18:34;21.50;91.50
63317;DHT22;49822;41.468;13.560;2022-09-16T04:21:03;21.50;91.70
63317;DHT22;49822;41.468;13.560;2022-09-16T04:23:30;21.40;93.10
63317;DHT22;49822;41.468;13.560;2022-09-16T04:26:00;21.40;93.10
63317;DHT22;49822;41.468;13.560;2022-09-16T04:28:29;21.40;93.20
63317;DHT22;49822;41.468;13.560;2022-09-16T04:31:05;21.40;94.00
63317;DHT22;49822;41.468;13.560;2022-09-16T04:33:35;21.40;94.00
63317;DHT22;49822;41.468;13.560;2022-09-16T04:36:04;21.40;94.20
63317;DHT22;49822;41.468;13.560;2022-09-16T04:38:33;21.50;94.30
63317;DHT22;49822;41.468;13.560;2022-09-16T04:41:06;21.50;93.60
63317;DHT22;49822;41.468;13.560;2022-09-16T04:43:36;21.50;93.00
63317;DHT22;49822;41.468;13.560;2022-09-16T04:46:04;21.50;92.90
63317;DHT22;49822;41.468;13.560;2022-09-16T04:48:34;21.50;92.50
63317;DHT22;49822;41.468;13.560;2022-09-16T04:51:09;21.50;92.80
63317;DHT22;49822;41.468;13.560;2022-09-16T04:53:38;21.50;92.90
63317;DHT22;49822;41.468;13.560;2022-09-16T04:56:09;21.50;92.00
63317;DHT22;49822;41.468;13.560;2022-09-16T04:58:45;21.50;91.70
63317;DHT22;49822;41.468;13.560;2022-09-16T05:01:18;21.30;93.00
63317;DHT22;49822;41.468;13.560;2022-09-16T05:03:49;21.30;93.30
63317;DHT22;49822;41.468;13.560;2022-09-16T05:06:25;21.40;93.60
63317;DHT22;49822;41.468;13.560;2022-09-16T05:08:55;21.40;93.10
63317;DHT22;49822;41.468;13.560;2022-09-16T05:11:36;21.40;92.80
63317;DHT22;49822;41.468;13.560;2022-09-16T05:14:09;21.50;92.00
63317;DHT22;49822;41.468;13.560;2022-09-16T05:16:40;21.50;92.40
63317;DHT22;49822;41.468;13.560;2022-09-16T05:19:11;21.50;92.50
63317;DHT22;49822;41.468;13.560;2022-09-16T05:21:46;21.50;92.10
63317;DHT22;49822;41.468;13.560;2022-09-16T05:24:14;21.50;92.50
63317;DHT22;49822;41.468;13.560;2022-09-16T05:26:42;21.50;92.60
63317;DHT22;49822;41.468;13.560;2022-09-16T05:29:14;21.50;92.80
63317;DHT22;49822;41.468;13.560;2022-09-16T05:31:43;21.50;93.30
63317;DHT22;49822;41.468;13.560;2022-09-16T05:34:19;21.50;93.60
63317;DHT22;49822;41.468;13.560;2022-09-16T05:36:49;21.50;93.50
63317;DHT22;49822;41.468;13.560;2022-09-16T05:39:21;21.30;94.90
63317;DHT22;49822;41.468;13.560;2022-09-16T05:41:56;21.10;96.30
63317;DHT22;49822;41.468;13.560;2022-09-16T05:44:25;21.10;96.70
63317;DHT22;49822;41.468;13.560;2022-09-16T05:46:53;21.10;96.80
63317;DHT22;49822;41.468;13.560;2022-09-16T05:49:20;21.30;96.30
63317;DHT22;49822;41.468;13.560;2022-09-16T05:51:58;21.40;95.70
63317;DHT22;49822;41.468;13.560;2022-09-16T05:55:05;21.50;94.90
63317;DHT22;49822;41.468;13.560;2022-09-16T05:57:33;21.60;94.10
63317;DHT22;49822;41.468;13.560;2022-09-16T06:00:02;21.70;93.40
63317;DHT22;49822;41.468;13.560;2022-09-16T06:02:35;21.70;93.00
63317;DHT22;49822;41.468;13.560;2022-09-16T06:05:05;21.70;93.30
63317;DHT22;49822;41.468;13.560;2022-09-16T06:07:33;21.60;93.90
63317;DHT22;49822;41.468;13.560;2022-09-16T06:10:00;21.70;93.40
63317;DHT22;49822;41.468;13.560;2022-09-16T06:12:31;21.70;93.20
63317;DHT22;49822;41.468;13.560;2022-09-16T06:14:59;21.70;92.80
63317;DHT22;49822;41.468;13.560;2022-09-16T06:17:26;21.90;91.70
63317;DHT22;49822;41.468;13.560;2022-09-16T06:19:54;22.10;91.00
63317;DHT22;49822;41.468;13.560;2022-09-16T06:22:22;22.20;90.00
63317;DHT22;49822;41.468;13.560;2022-09-16T06:24:51;22.30;90.60
63317;DHT22;49822;41.468;13.560;2022-09-16T06:27:20;22.30;90.40
63317;DHT22;49822;41.468;13.560;2022-09-16T06:29:48;22.40;90.40
63317;DHT22;49822;41.468;13.560;2022-09-16T06:32:17;22.50;89.80
63317;DHT22;49822;41.468;13.560;2022-09-16T06:34:45;22.50;90.30
63317;DHT22;49822;41.468;13.560;2022-09-16T06:37:13;22.70;90.70
63317;DHT22;49822;41.468;13.560;2022-09-16T06:39:41;22.80;89.70
63317;DHT22;49822;41.468;13.560;2022-09-16T06:42:09;22.90;88.60
63317;DHT22;49822;41.468;13.560;2022-09-16T06:44:46;23.00;89.00
63317;DHT22;49822;41.468;13.560;2022-09-16T06:47:32;23.00;88.20
63317;DHT22;49822;41.468;13.560;2022-09-16T06:50:15;23.00;87.70
63317;DHT22;49822;41.468;13.560;2022-09-16T06:52:49;23.00;87.50
63317;DHT22;49822;41.468;13.560;2022-09-16T06:55:18;23.10;87.20
63317;DHT22;49822;41.468;13.560;2022-09-16T06:57:47;23.20;87.30
63317;DHT22;49822;41.468;13.560;2022-09-16T07:00:18;23.30;86.40
63317;DHT22;49822;41.468;13.560;2022-09-16T07:02:47;23.30;86.90
63317;DHT22;49822;41.468;13.560;2022-09-16T07:05:15;23.20;86.00
63317;DHT22;49822;41.468;13.560;2022-09-16T07:07:45;23.20;86.30
63317;DHT22;49822;41.468;13.560;2022-09-16T07:10:18;23.10;86.60
63317;DHT22;49822;41.468;13.560;2022-09-16T07:12:46;23.20;87.60
63317;DHT22;49822;41.468;13.560;2022-09-16T07:15:15;23.20;86.80
63317;DHT22;49822;41.468;13.560;2022-09-16T07:17:53;23.20;86.40
63317;DHT22;49822;41.468;13.560;2022-09-16T07:20:22;23.30;86.50
63317;DHT22;49822;41.468;13.560;2022-09-16T07:22:52;23.50;85.70
63317;DHT22;49822;41.468;13.560;2022-09-16T07:25:23;23.60;85.20
63317;DHT22;49822;41.468;13.560;2022-09-16T07:27:55;23.60;84.00
63317;DHT22;49822;41.468;13.560;2022-09-16T07:30:24;23.90;83.20
63317;DHT22;49822;41.468;13.560;2022-09-16T07:32:59;24.00;83.20
63317;DHT22;49822;41.468;13.560;2022-09-16T07:35:27;24.10;82.30
63317;DHT22;49822;41.468;13.560;2022-09-16T07:37:59;24.20;82.00
63317;DHT22;49822;41.468;13.560;2022-09-16T07:40:28;24.40;81.70
63317;DHT22;49822;41.468;13.560;2022-09-16T07:42:59;24.50;81.40
63317;DHT22;49822;41.468;13.560;2022-09-16T07:45:31;24.70;80.50
63317;DHT22;49822;41.468;13.560;2022-09-16T07:48:33;24.80;78.90
63317;DHT22;49822;41.468;13.560;2022-09-16T07:51:19;24.90;78.50
63317;DHT22;49822;41.468;13.560;2022-09-16T07:54:00;25.00;78.70
63317;DHT22;49822;41.468;13.560;2022-09-16T07:56:36;24.80;79.00
63317;DHT22;49822;41.468;13.560;2022-09-16T07:59:15;24.70;79.90
63317;DHT22;49822;41.468;13.560;2022-09-16T08:01:56;24.70;78.70
63317;DHT22;49822;41.468;13.560;2022-09-16T08:04:35;24.70;78.30
63317;DHT22;49822;41.468;13.560;2022-09-16T08:07:04;25.00;79.30
63317;DHT22;49822;41.468;13.560;2022-09-16T08:09:34;25.30;75.80
63317;DHT22;49822;41.468;13.560;2022-09-16T08:12:16;25.40;75.60
63317;DHT22;49822;41.468;13.560;2022-09-16T08:14:44;25.40;74.60
63317;DHT22;49822;41.468;13.560;2022-09-16T08:17:17;25.50;74.70
63317;DHT22;49822;41.468;13.560;2022-09-16T08:19:50;25.60;75.70
63317;DHT22;49822;41.468;13.560;2022-09-16T08:22:18;25.60;73.80
63317;DHT22;49822;41.468;13.560;2022-09-16T08:24:46;25.60;73.20
63317;DHT22;49822;41.468;13.560;2022-09-16T08:27:14;25.80;74.20
63317;DHT22;49822;41.468;13.560;2022-09-16T08:29:41;25.80;72.60
63317;DHT22;49822;41.468;13.560;2022-09-16T08:32:08;25.70;73.20
63317;DHT22;49822;41.468;13.560;2022-09-16T08:34:37;25.60;72.40
63317;DHT22;49822;41.468;13.560;2022-09-16T08:37:05;25.50;73.60
63317;DHT22;49822;41.468;13.560;2022-09-16T08:39:34;25.50;73.70
63317;DHT22;49822;41.468;13.560;2022-09-16T08:50:59;25.30;75.80
63317;DHT22;49822;41.468;13.560;2022-09-16T08:54:00;25.20;76.00
63317;DHT22;49822;41.468;13.560;2022-09-16T08:56:30;25.20;75.70
63317;DHT22;49822;41.468;13.560;2022-09-16T08:59:04;25.10;76.50
63317;DHT22;49822;41.468;13.560;2022-09-16T09:01:41;25.10;76.50
63317;DHT22;49822;41.468;13.560;2022-09-16T09:04:12;25.20;76.00
63317;DHT22;49822;41.468;13.560;2022-09-16T09:09:35;25.30;75.40
63317;DHT22;49822;41.468;13.560;2022-09-16T09:12:09;25.30;75.00
63317;DHT22;49822;41.468;13.560;2022-09-16T09:23:12;25.80;64.30
63317;DHT22;49822;41.468;13.560;2022-09-16T09:26:03;26.00;67.80
63317;DHT22;49822;41.468;13.560;2022-09-16T09:31:41;26.30;63.30
63317;DHT22;49822;41.468;13.560;2022-09-16T09:34:30;26.50;62.50
63317;DHT22;49822;41.468;13.560;2022-09-16T09:40:18;26.70;62.30
63317;DHT22;49822;41.468;13.560;2022-09-16T09:42:52;27.00;61.90
63317;DHT22;49822;41.468;13.560;2022-09-16T09:45:30;27.10;62.50
63317;DHT22;49822;41.468;13.560;2022-09-16T09:48:13;27.30;66.20
63317;DHT22;49822;41.468;13.560;2022-09-16T09:50:48;27.20;67.00
63317;DHT22;49822;41.468;13.560;2022-09-16T09:53:27;27.20;65.30
63317;DHT22;49822;41.468;13.560;2022-09-16T09:56:07;27.40;64.90
63317;DHT22;49822;41.468;13.560;2022-09-16T10:01:22;27.50;60.90
63317;DHT22;49822;41.468;13.560;2022-09-16T10:03:50;27.20;62.20
63317;DHT22;49822;41.468;13.560;2022-09-16T10:06:28;27.00;63.30
63317;DHT22;49822;41.468;13.560;2022-09-16T10:08:58;26.80;63.20
63317;DHT22;49822;41.468;13.560;2022-09-16T10:11:28;26.60;63.90
63317;DHT22;49822;41.468;13.560;2022-09-16T10:14:00;26.60;62.50
63317;DHT22;49822;41.468;13.560;2022-09-16T10:16:32;26.70;63.80
63317;DHT22;49822;41.468;13.560;2022-09-16T10:19:02;26.90;63.00
63317;DHT22;49822;41.468;13.560;2022-09-16T10:21:41;27.00;61.80
63317;DHT22;49822;41.468;13.560;2022-09-16T10:24:40;27.00;62.00
63317;DHT22;49822;41.468;13.560;2022-09-16T10:30:13;26.80;62.80
63317;DHT22;49822;41.468;13.560;2022-09-16T10:32:59;26.80;62.80
63317;DHT22;49822;41.468;13.560;2022-09-16T10:35:30;26.80;62.90
63317;DHT22;49822;41.468;13.560;2022-09-16T10:38:04;26.90;63.00
63317;DHT22;49822;41.468;13.560;2022-09-16T10:40:33;26.90;62.50
63317;DHT22;49822;41.468;13.560;2022-09-16T10:43:05;26.80;61.90
63317;DHT22;49822;41.468;13.560;2022-09-16T10:45:37;27.00;59.10
63317;DHT22;49822;41.468;13.560;2022-09-16T10:48:15;27.10;61.20
63317;DHT22;49822;41.468;13.560;2022-09-16T10:50:56;26.80;59.50
63317;DHT22;49822;41.468;13.560;2022-09-16T10:53:35;26.80;59.80
63317;DHT22;49822;41.468;13.560;2022-09-16T10:56:17;26.90;60.60
63317;DHT22;49822;41.468;13.560;2022-09-16T10:58:46;27.00;60.30
63317;DHT22;49822;41.468;13.560;2022-09-16T11:07:39;26.90;63.00
63317;DHT22;49822;41.468;13.560;2022-09-16T11:10:40;27.00;62.10
63317;DHT22;49822;41.468;13.560;2022-09-16T11:38:17;27.70;59.30
63317;DHT22;49822;41.468;13.560;2022-09-16T11:41:11;27.80;58.90
63317;DHT22;49822;41.468;13.560;2022-09-16T11:54:41;27.80;57.90
63317;DHT22;49822;41.468;13.560;2022-09-16T11:57:17;28.10;60.00
63317;DHT22;49822;41.468;13.560;2022-09-16T11:59:59;28.70;58.20
63317;DHT22;49822;41.468;13.560;2022-09-16T12:02:43;29.40;55.20
63317;DHT22;49822;41.468;13.560;2022-09-16T12:05:26;29.70;53.80
63317;DHT22;49822;41.468;13.560;2022-09-16T12:08:06;29.30;54.00
63317;DHT22;49822;41.468;13.560;2022-09-16T12:16:50;29.20;53.90
63317;DHT22;49822;41.468;13.560;2022-09-16T12:19:46;29.50;52.80
63317;DHT22;49822;41.468;13.560;2022-09-16T12:22:30;28.90;53.10
63317;DHT22;49822;41.468;13.560;2022-09-16T12:25:33;29.10;52.10
63317;DHT22;49822;41.468;13.560;2022-09-16T12:28:11;28.90;52.70
63317;DHT22;49822;41.468;13.560;2022-09-16T12:30:45;28.70;53.40
63317;DHT22;49822;41.468;13.560;2022-09-16T12:33:33;29.00;52.70
63317;DHT22;49822;41.468;13.560;2022-09-16T12:36:09;28.60;52.50
63317;DHT22;49822;41.468;13.560;2022-09-16T12:38:39;28.60;53.00
63317;DHT22;49822;41.468;13.560;2022-09-16T12:47:22;28.50;51.00
63317;DHT22;49822;41.468;13.560;2022-09-16T12:58:56;28.50;52.80
63317;DHT22;49822;41.468;13.560;2022-09-16T13:01:34;28.30;52.90
63317;DHT22;49822;41.468;13.560;2022-09-16T13:06:46;28.60;53.00
63317;DHT22;49822;41.468;13.560;2022-09-16T13:09:38;29.00;52.30
63317;DHT22;49822;41.468;13.560;2022-09-16T13:12:21;28.60;52.30
63317;DHT22;49822;41.468;13.560;2022-09-16T13:15:23;28.30;54.30
63317;DHT22;49822;41.468;13.560;2022-09-16T13:20:57;28.60;54.10
63317;DHT22;49822;41.468;13.560;2022-09-16T13:23:32;29.50;51.10
63317;DHT22;49822;41.468;13.560;2022-09-16T13:26:07;28.90;50.70
63317;DHT22;49822;41.468;13.560;2022-09-16T13:33:45;28.20;55.00
63317;DHT22;49822;41.468;13.560;2022-09-16T13:38:53;28.70;53.50
63317;DHT22;49822;41.468;13.560;2022-09-16T13:49:55;28.90;55.20
63317;DHT22;49822;41.468;13.560;2022-09-16T13:52:35;28.90;54.60
63317;DHT22;49822;41.468;13.560;2022-09-16T13:55:07;28.50;54.90
63317;DHT22;49822;41.468;13.560;2022-09-16T13:58:14;28.70;54.60
63317;DHT22;49822;41.468;13.560;2022-09-16T14:01:07;28.60;54.50
63317;DHT22;49822;41.468;13.560;2022-09-16T14:03:54;28.60;54.30
63317;DHT22;49822;41.468;13.560;2022-09-16T14:11:42;28.10;56.80
63317;DHT22;49822;41.468;13.560;2022-09-16T14:14:21;28.50;56.10
63317;DHT22;49822;41.468;13.560;2022-09-16T14:17:42;28.10;57.40
63317;DHT22;49822;41.468;13.560;2022-09-16T14:20:20;28.30;57.00
63317;DHT22;49822;41.468;13.560;2022-09-16T14:22:58;28.10;58.20
63317;DHT22;49822;41.468;13.560;2022-09-16T14:25:35;28.10;57.90
63317;DHT22;49822;41.468;13.560;2022-09-16T14:28:16;28.40;58.20
63317;DHT22;49822;41.468;13.560;2022-09-16T14:31:08;28.50;56.90
63317;DHT22;49822;41.468;13.560;2022-09-16T14:33:42;28.90;56.20
63317;DHT22;49822;41.468;13.560;2022-09-16T14:36:31;29.00;56.80
63317;DHT22;49822;41.468;13.560;2022-09-16T14:39:11;28.10;57.90
63317;DHT22;49822;41.468;13.560;2022-09-16T14:41:52;27.60;59.60
63317;DHT22;49822;41.468;13.560;2022-09-16T14:44:43;27.50;59.60
63317;DHT22;49822;41.468;13.560;2022-09-16T14:47:21;27.50;59.40
63317;DHT22;49822;41.468;13.560;2022-09-16T14:50:14;27.60;59.60
63317;DHT22;49822;41.468;13.560;2022-09-16T14:52:54;27.80;58.90
63317;DHT22;49822;41.468;13.560;2022-09-16T14:55:25;27.70;59.20
63317;DHT22;49822;41.468;13.560;2022-09-16T14:57:56;27.30;59.70
63317;DHT22;49822;41.468;13.560;2022-09-16T15:00:29;27.80;58.80
63317;DHT22;49822;41.468;13.560;2022-09-16T15:03:14;27.60;58.70
63317;DHT22;49822;41.468;13.560;2022-09-16T15:05:46;27.90;58.80
63317;DHT22;49822;41.468;13.560;2022-09-16T15:08:16;27.70;54.30
63317;DHT22;49822;41.468;13.560;2022-09-16T15:10:46;27.50;56.30
63317;DHT22;49822;41.468;13.560;2022-09-16T15:13:27;27.90;54.30
63317;DHT22;49822;41.468;13.560;2022-09-16T15:16:03;28.00;53.70
63317;DHT22;49822;41.468;13.560;2022-09-16T15:18:37;28.10;50.40
63317;DHT22;49822;41.468;13.560;2022-09-16T15:23:32;28.60;49.40
63317;DHT22;49822;41.468;13.560;2022-09-16T15:26:19;29.00;46.80
63317;DHT22;49822;41.468;13.560;2022-09-16T15:29:01;28.80;46.50
63317;DHT22;49822;41.468;13.560;2022-09-16T15:31:35;28.50;46.30
63317;DHT22;49822;41.468;13.560;2022-09-16T15:36:56;27.60;48.80
63317;DHT22;49822;41.468;13.560;2022-09-16T15:39:36;27.90;48.70
63317;DHT22;49822;41.468;13.560;2022-09-16T15:42:20;28.10;46.90
63317;DHT22;49822;41.468;13.560;2022-09-16T15:44:57;27.90;48.10
63317;DHT22;49822;41.468;13.560;2022-09-16T15:47:36;27.80;46.10
63317;DHT22;49822;41.468;13.560;2022-09-16T15:50:10;27.90;45.90
63317;DHT22;49822;41.468;13.560;2022-09-16T15:53:05;27.90;46.70
63317;DHT22;49822;41.468;13.560;2022-09-16T16:00:13;27.90;49.30
63317;DHT22;49822;41.468;13.560;2022-09-16T16:03:00;27.60;51.50
63317;DHT22;49822;41.468;13.560;2022-09-16T16:06:00;27.50;52.30
63317;DHT22;49822;41.468;13.560;2022-09-16T16:08:49;27.30;53.10
63317;DHT22;49822;41.468;13.560;2022-09-16T16:11:20;26.80;55.20
63317;DHT22;49822;41.468;13.560;2022-09-16T16:13:49;26.30;57.50
63317;DHT22;49822;41.468;13.560;2022-09-16T16:16:17;26.10;57.60
63317;DHT22;49822;41.468;13.560;2022-09-16T16:18:45;26.00;56.50
63317;DHT22;49822;41.468;13.560;2022-09-16T16:21:14;26.00;56.60
63317;DHT22;49822;41.468;13.560;2022-09-16T16:23:43;25.90;59.20
63317;DHT22;49822;41.468;13.560;2022-09-16T16:26:10;25.80;60.10
63317;DHT22;49822;41.468;13.560;2022-09-16T16:28:38;25.70;58.70
63317;DHT22;49822;41.468;13.560;2022-09-16T16:31:15;25.80;58.20
63317;DHT22;49822;41.468;13.560;2022-09-16T16:33:46;25.80;59.50
63317;DHT22;49822;41.468;13.560;2022-09-16T16:36:16;25.80;53.00
63317;DHT22;49822;41.468;13.560;2022-09-16T16:38:44;26.00;52.80
63317;DHT22;49822;41.468;13.560;2022-09-16T16:41:18;26.00;55.50
63317;DHT22;49822;41.468;13.560;2022-09-16T16:43:45;26.00;57.40
63317;DHT22;49822;41.468;13.560;2022-09-16T16:46:13;25.80;56.00
63317;DHT22;49822;41.468;13.560;2022-09-16T16:48:40;25.80;56.60
63317;DHT22;49822;41.468;13.560;2022-09-16T16:51:10;25.60;59.20
63317;DHT22;49822;41.468;13.560;2022-09-16T16:53:38;25.40;55.20
63317;DHT22;49822;41.468;13.560;2022-09-16T16:56:11;25.40;57.90
63317;DHT22;49822;41.468;13.560;2022-09-16T16:58:41;25.20;57.00
63317;DHT22;49822;41.468;13.560;2022-09-16T17:01:17;25.00;58.20
63317;DHT22;49822;41.468;13.560;2022-09-16T17:03:46;25.00;57.60
63317;DHT22;49822;41.468;13.560;2022-09-16T17:06:16;25.00;54.60
63317;DHT22;49822;41.468;13.560;2022-09-16T17:08:45;25.00;59.00
63317;DHT22;49822;41.468;13.560;2022-09-16T17:11:17;24.40;59.40
63317;DHT22;49822;41.468;13.560;2022-09-16T17:13:49;24.20;58.60
63317;DHT22;49822;41.468;13.560;2022-09-16T17:16:19;24.30;57.30
63317;DHT22;49822;41.468;13.560;2022-09-16T17:18:48;24.40;58.80
63317;DHT22;49822;41.468;13.560;2022-09-16T17:21:20;24.20;57.40
63317;DHT22;49822;41.468;13.560;2022-09-16T17:23:57;24.00;57.80
63317;DHT22;49822;41.468;13.560;2022-09-16T17:26:32;23.70;58.30
63317;DHT22;49822;41.468;13.560;2022-09-16T17:29:00;23.80;58.30
63317;DHT22;49822;41.468;13.560;2022-09-16T17:31:40;24.00;55.40
63317;DHT22;49822;41.468;13.560;2022-09-16T17:34:10;24.10;57.60
63317;DHT22;49822;41.468;13.560;2022-09-16T17:36:41;24.20;56.80
63317;DHT22;49822;41.468;13.560;2022-09-16T17:39:16;24.20;57.50
63317;DHT22;49822;41.468;13.560;2022-09-16T17:41:45;24.30;58.40
63317;DHT22;49822;41.468;13.560;2022-09-16T17:44:15;24.40;58.00
63317;DHT22;49822;41.468;13.560;2022-09-16T17:46:43;24.40;59.40
63317;DHT22;49822;41.468;13.560;2022-09-16T17:49:16;24.50;59.70
63317;DHT22;49822;41.468;13.560;2022-09-16T17:51:44;24.60;59.40
63317;DHT22;49822;41.468;13.560;2022-09-16T17:54:11;24.50;60.80
63317;DHT22;49822;41.468;13.560;2022-09-16T17:56:39;24.40;61.90
63317;DHT22;49822;41.468;13.560;2022-09-16T17:59:09;24.40;61.60
63317;DHT22;49822;41.468;13.560;2022-09-16T18:01:38;24.50;61.70
63317;DHT22;49822;41.468;13.560;2022-09-16T18:04:05;24.40;61.80
63317;DHT22;49822;41.468;13.560;2022-09-16T18:06:42;24.20;62.20
63317;DHT22;49822;41.468;13.560;2022-09-16T18:09:11;24.40;63.90
63317;DHT22;49822;41.468;13.560;2022-09-16T18:11:39;24.40;62.70
63317;DHT22;49822;41.468;13.560;2022-09-16T18:14:10;24.30;65.10
63317;DHT22;49822;41.468;13.560;2022-09-16T18:16:38;24.30;66.10
63317;DHT22;49822;41.468;13.560;2022-09-16T18:19:06;24.20;66.60
63317;DHT22;49822;41.468;13.560;2022-09-16T18:21:34;24.20;66.80
63317;DHT22;49822;41.468;13.560;2022-09-16T18:24:12;24.10;68.50
63317;DHT22;49822;41.468;13.560;2022-09-16T18:27:11;24.00;69.80
63317;DHT22;49822;41.468;13.560;2022-09-16T18:30:07;24.00;68.90
63317;DHT22;49822;41.468;13.560;2022-09-16T18:32:52;24.00;68.90
63317;DHT22;49822;41.468;13.560;2022-09-16T18:35:20;23.90;69.60
63317;DHT22;49822;41.468;13.560;2022-09-16T18:37:48;24.00;69.10
63317;DHT22;49822;41.468;13.560;2022-09-16T18:40:15;24.00;69.00
63317;DHT22;49822;41.468;13.560;2022-09-16T18:42:43;23.90;68.50
63317;DHT22;49822;41.468;13.560;2022-09-16T18:45:12;24.00;68.20
63317;DHT22;49822;41.468;13.560;2022-09-16T18:47:43;24.00;68.50
63317;DHT22;49822;41.468;13.560;2022-09-16T18:50:11;24.00;67.60
63317;DHT22;49822;41.468;13.560;2022-09-16T18:52:38;24.00;67.30
63317;DHT22;49822;41.468;13.560;2022-09-16T18:55:06;24.00;66.80
63317;DHT22;49822;41.468;13.560;2022-09-16T18:57:33;24.00;64.80
63317;DHT22;49822;41.468;13.560;2022-09-16T19:00:01;24.00;64.80
63317;DHT22;49822;41.468;13.560;2022-09-16T19:02:31;24.00;65.00
63317;DHT22;49822;41.468;13.560;2022-09-16T19:04:59;23.90;65.40
63317;DHT22;49822;41.468;13.560;2022-09-16T19:07:28;23.60;66.50